createdAt,value
2017-08-31T00:00:27.114Z,8.80
2017-08-31T00:01:29.702Z,11.15
2017-08-31T00:02:32.243Z,9.70
2017-08-31T00:03:34.915Z,10.73
2017-08-31T00:04:37.500Z,9.23
2017-08-31T00:05:40.042Z,10.45
2017-08-31T00:06:43.420Z,11.12
2017-08-31T00:07:46.177Z,10.68
2017-08-31T00:08:48.725Z,9.60
2017-08-31T00:09:51.323Z,9.48
2017-08-31T00:10:53.877Z,18.10
2017-08-31T00:11:56.437Z,11.30
2017-08-31T00:12:58.982Z,11.55
2017-08-31T00:14:01.541Z,15.60
2017-08-31T00:15:04.152Z,11.90
2017-08-31T00:16:06.720Z,12.68
2017-08-31T00:17:09.268Z,12.43
2017-08-31T00:18:11.814Z,10.32
2017-08-31T00:19:14.372Z,10.95
2017-08-31T00:20:17.004Z,11.93
2017-08-31T00:21:19.555Z,9.85
2017-08-31T00:22:22.122Z,13.88
2017-08-31T00:23:24.734Z,13.23
2017-08-31T00:24:27.906Z,10.82
2017-08-31T00:25:30.522Z,14.05
2017-08-31T00:26:33.116Z,11.38
2017-08-31T00:27:35.653Z,12.20
2017-08-31T00:28:38.193Z,14.15
2017-08-31T00:29:41.509Z,9.25
2017-08-31T00:30:44.124Z,19.62
2017-08-31T00:31:46.670Z,10.25
2017-08-31T00:32:49.221Z,9.80
2017-08-31T00:33:51.780Z,11.88
2017-08-31T00:34:54.312Z,10.32
2017-08-31T00:35:56.923Z,8.75
2017-08-31T00:36:59.475Z,10.65
2017-08-31T00:38:02.036Z,9.05
2017-08-31T00:39:04.574Z,10.27
2017-08-31T00:40:07.127Z,10.02
2017-08-31T00:41:09.735Z,10.80
2017-08-31T00:42:12.921Z,11.95
2017-08-31T00:43:15.529Z,11.50
2017-08-31T00:44:18.066Z,9.38
2017-08-31T00:45:20.602Z,10.45
2017-08-31T00:46:23.206Z,13.55
2017-08-31T00:47:25.820Z,12.20
2017-08-31T00:48:28.365Z,9.95
2017-08-31T00:49:30.935Z,9.55
2017-08-31T00:50:34.234Z,9.20
2017-08-31T00:51:36.805Z,13.50
2017-08-31T00:52:39.424Z,10.93
2017-08-31T00:53:42.768Z,11.73
2017-08-31T00:54:45.335Z,16.77
2017-08-31T00:55:48.011Z,12.95
2017-08-31T00:56:50.633Z,20.25
2017-08-31T00:57:53.211Z,11.98
2017-08-31T00:58:55.756Z,16.45
2017-08-31T00:59:58.337Z,9.43
2017-08-31T01:01:00.902Z,10.95
2017-08-31T01:02:03.524Z,12.27
2017-08-31T01:03:06.067Z,9.93
2017-08-31T01:04:08.713Z,10.77
2017-08-31T01:05:11.269Z,10.68
2017-08-31T01:06:13.813Z,10.98
2017-08-31T01:07:16.394Z,12.68
2017-08-31T01:08:18.958Z,10.52
2017-08-31T01:09:21.538Z,14.48
2017-08-31T01:10:24.103Z,14.38
2017-08-31T01:11:26.649Z,13.65
2017-08-31T01:12:29.254Z,10.98
2017-08-31T01:13:31.807Z,15.48
2017-08-31T01:14:34.346Z,9.35
2017-08-31T01:15:36.891Z,9.98
2017-08-31T01:16:39.438Z,10.73
2017-08-31T01:17:42.143Z,12.57
2017-08-31T01:18:44.823Z,14.32
2017-08-31T01:19:47.456Z,11.00
2017-08-31T01:20:49.993Z,11.88
2017-08-31T01:21:52.588Z,12.88
2017-08-31T01:22:55.181Z,13.68
2017-08-31T01:23:57.765Z,11.35
2017-08-31T01:25:00.386Z,13.40
2017-08-31T01:26:02.940Z,13.13
2017-08-31T01:27:05.516Z,11.07
2017-08-31T01:28:08.124Z,14.20
2017-08-31T01:29:10.697Z,10.57
2017-08-31T01:30:13.246Z,10.10
2017-08-31T01:31:15.803Z,13.15
2017-08-31T01:32:18.481Z,9.68
2017-08-31T01:33:21.222Z,12.82
2017-08-31T01:34:23.773Z,16.15
2017-08-31T01:35:26.302Z,8.93
2017-08-31T01:36:28.855Z,15.27
2017-08-31T01:37:31.422Z,15.63
2017-08-31T01:38:34.038Z,8.35
2017-08-31T01:39:36.569Z,12.18
2017-08-31T01:40:39.217Z,14.68
2017-08-31T01:41:41.779Z,9.80
2017-08-31T01:42:44.366Z,11.00
2017-08-31T01:43:47.806Z,13.80
2017-08-31T01:44:50.474Z,10.27
2017-08-31T01:45:53.060Z,12.25
2017-08-31T01:46:55.627Z,11.12
2017-08-31T01:47:58.215Z,9.40
2017-08-31T01:49:00.874Z,10.63
2017-08-31T01:50:03.479Z,9.60
2017-08-31T01:51:06.117Z,17.10
2017-08-31T01:52:08.810Z,10.18
2017-08-31T01:53:11.423Z,11.90
2017-08-31T01:54:14.027Z,11.70
2017-08-31T01:55:16.593Z,13.80
2017-08-31T01:56:19.131Z,12.00
2017-08-31T01:57:21.679Z,14.27
2017-08-31T01:58:24.218Z,10.18
2017-08-31T01:59:26.821Z,12.20
2017-08-31T02:00:29.373Z,14.00
2017-08-31T02:01:31.900Z,11.95
2017-08-31T02:02:34.502Z,12.07
2017-08-31T02:03:37.058Z,11.93
2017-08-31T02:04:39.654Z,12.37
2017-08-31T02:05:42.227Z,12.02
2017-08-31T02:06:44.782Z,15.13
2017-08-31T02:07:47.337Z,11.00
2017-08-31T02:08:49.886Z,13.18
2017-08-31T02:09:52.586Z,10.90
2017-08-31T02:10:55.122Z,16.27
2017-08-31T02:11:57.725Z,9.93
2017-08-31T02:13:00.276Z,14.80
2017-08-31T02:14:02.842Z,13.65
2017-08-31T02:15:05.433Z,11.68
2017-08-31T02:16:08.758Z,11.15
2017-08-31T02:17:11.290Z,13.35
2017-08-31T02:18:13.950Z,14.50
2017-08-31T02:19:16.525Z,16.87
2017-08-31T02:20:19.127Z,10.30
2017-08-31T02:21:21.705Z,12.73
2017-08-31T02:22:24.272Z,13.38
2017-08-31T02:23:26.870Z,13.23
2017-08-31T02:24:29.500Z,12.20
2017-08-31T02:25:32.120Z,13.52
2017-08-31T02:26:35.426Z,14.07
2017-08-31T02:27:37.983Z,11.75
2017-08-31T02:28:40.549Z,15.40
2017-08-31T02:29:43.086Z,16.65
2017-08-31T02:30:45.673Z,14.48
2017-08-31T02:31:48.244Z,12.52
2017-08-31T02:32:50.792Z,11.75
2017-08-31T02:33:53.353Z,12.57
2017-08-31T02:34:56.414Z,9.90
2017-08-31T02:35:59.019Z,14.77
2017-08-31T02:37:02.363Z,10.45
2017-08-31T02:38:05.177Z,13.82
2017-08-31T02:39:07.800Z,12.45
2017-08-31T02:40:10.363Z,12.15
2017-08-31T02:41:12.999Z,14.20
2017-08-31T02:42:15.538Z,17.48
2017-08-31T02:43:18.111Z,12.75
2017-08-31T02:44:20.662Z,14.07
2017-08-31T02:45:24.476Z,10.85
2017-08-31T02:46:27.051Z,12.00
2017-08-31T02:47:29.663Z,15.27
2017-08-31T02:48:32.260Z,12.63
2017-08-31T02:49:34.829Z,16.23
2017-08-31T02:50:37.419Z,14.70
2017-08-31T02:51:40.033Z,11.75
2017-08-31T02:52:42.600Z,12.40
2017-08-31T02:53:45.218Z,13.32
2017-08-31T02:54:47.765Z,17.65
2017-08-31T02:55:50.303Z,12.52
2017-08-31T02:56:53.042Z,12.30
2017-08-31T02:57:55.588Z,10.82
2017-08-31T02:58:58.145Z,15.25
2017-08-31T03:00:00.799Z,26.35
2017-08-31T03:01:03.648Z,11.80
2017-08-31T03:02:06.361Z,12.85
2017-08-31T03:03:09.012Z,12.40
2017-08-31T03:04:11.620Z,12.60
2017-08-31T03:05:14.171Z,10.93
2017-08-31T03:06:16.778Z,14.70
2017-08-31T03:07:19.423Z,14.20
2017-08-31T03:08:22.053Z,12.07
2017-08-31T03:09:24.619Z,11.80
2017-08-31T03:10:27.174Z,14.45
2017-08-31T03:11:29.732Z,11.40
2017-08-31T03:12:32.445Z,15.88
2017-08-31T03:13:35.037Z,16.10
2017-08-31T03:14:37.585Z,14.32
2017-08-31T03:15:40.190Z,12.50
2017-08-31T03:16:42.756Z,14.45
2017-08-31T03:17:45.327Z,12.88
2017-08-31T03:18:47.875Z,13.30
2017-08-31T03:19:50.518Z,12.00
2017-08-31T03:20:53.520Z,12.52
2017-08-31T03:21:56.409Z,14.05
2017-08-31T03:22:59.259Z,13.65
2017-08-31T03:24:02.037Z,14.87
2017-08-31T03:25:06.238Z,14.15
2017-08-31T03:26:08.845Z,13.05
2017-08-31T03:27:11.555Z,13.95
2017-08-31T03:28:14.097Z,13.45
2017-08-31T03:29:16.651Z,17.45
2017-08-31T03:30:19.269Z,16.17
2017-08-31T03:31:21.898Z,14.27
2017-08-31T03:32:25.251Z,12.98
2017-08-31T03:33:27.790Z,17.40
2017-08-31T03:34:30.980Z,16.55
2017-08-31T03:35:33.559Z,13.40
2017-08-31T03:36:36.273Z,15.27
2017-08-31T03:37:38.882Z,11.95
2017-08-31T03:38:41.504Z,16.85
2017-08-31T03:39:45.560Z,16.15
2017-08-31T03:40:48.201Z,19.98
2017-08-31T03:41:50.811Z,13.38
2017-08-31T03:42:53.374Z,16.62
2017-08-31T03:43:55.940Z,19.70
2017-08-31T03:44:58.525Z,17.15
2017-08-31T03:46:01.066Z,18.45
2017-08-31T03:47:03.678Z,17.20
2017-08-31T03:48:06.479Z,18.83
2017-08-31T03:49:09.346Z,14.30
2017-08-31T03:50:11.904Z,26.65
2017-08-31T03:51:14.456Z,19.77
2017-08-31T03:52:17.058Z,16.15
2017-08-31T03:53:19.614Z,19.48
2017-08-31T03:54:22.260Z,18.60
2017-08-31T03:55:24.797Z,20.42
2017-08-31T03:56:27.371Z,16.45
2017-08-31T03:57:29.979Z,16.10
2017-08-31T03:58:32.559Z,19.77
2017-08-31T03:59:35.106Z,17.62
2017-08-31T04:00:38.424Z,21.33
2017-08-31T04:01:40.960Z,20.98
2017-08-31T04:02:43.610Z,17.02
2017-08-31T04:03:46.163Z,13.82
2017-08-31T04:04:48.788Z,18.05
2017-08-31T04:05:51.342Z,20.20
2017-08-31T04:06:53.894Z,14.87
2017-08-31T04:07:56.523Z,18.02
2017-08-31T04:08:59.068Z,17.67
2017-08-31T04:10:01.603Z,21.15
2017-08-31T04:11:04.930Z,15.43
2017-08-31T04:12:07.508Z,20.25
2017-08-31T04:13:10.084Z,19.90
2017-08-31T04:14:12.622Z,21.52
2017-08-31T04:15:15.928Z,20.05
2017-08-31T04:16:18.492Z,26.92
2017-08-31T04:17:21.054Z,19.35
2017-08-31T04:18:23.648Z,22.25
2017-08-31T04:19:27.210Z,15.23
2017-08-31T04:20:29.764Z,23.80
2017-08-31T04:21:32.306Z,23.30
2017-08-31T04:22:34.863Z,20.98
2017-08-31T04:23:37.475Z,18.83
2017-08-31T04:24:40.025Z,17.30
2017-08-31T04:25:42.562Z,20.77
2017-08-31T04:26:45.085Z,19.45
2017-08-31T04:27:47.640Z,17.08
2017-08-31T04:28:50.233Z,17.50
2017-08-31T04:29:52.782Z,18.70
2017-08-31T04:30:55.333Z,20.90
2017-08-31T04:31:57.908Z,19.65
2017-08-31T04:33:00.461Z,24.70
2017-08-31T04:34:03.079Z,17.17
2017-08-31T04:35:05.643Z,18.27
2017-08-31T04:36:08.187Z,27.35
2017-08-31T04:37:11.567Z,20.88
2017-08-31T04:38:14.220Z,16.95
2017-08-31T04:39:16.827Z,20.98
2017-08-31T04:40:19.379Z,23.65
2017-08-31T04:41:21.922Z,24.02
2017-08-31T04:42:24.494Z,25.95
2017-08-31T04:43:27.124Z,19.77
2017-08-31T04:44:29.720Z,20.70
2017-08-31T04:45:32.286Z,20.37
2017-08-31T04:46:34.833Z,19.95
2017-08-31T04:47:37.435Z,23.62
2017-08-31T04:48:40.469Z,26.58
2017-08-31T04:49:43.062Z,23.42
2017-08-31T04:50:45.624Z,20.20
2017-08-31T04:51:48.159Z,18.40
2017-08-31T04:52:50.775Z,20.08
2017-08-31T04:55:01.264Z,20.65
2017-08-31T04:56:03.856Z,22.33
2017-08-31T04:57:07.424Z,22.05
2017-08-31T04:58:09.963Z,23.20
2017-08-31T04:59:12.602Z,17.23
2017-08-31T05:00:15.913Z,31.85
2017-08-31T05:01:18.489Z,15.07
2017-08-31T05:02:21.047Z,17.02
2017-08-31T05:03:23.613Z,19.30
2017-08-31T05:04:26.419Z,15.75
2017-08-31T05:05:28.954Z,19.83
2017-08-31T05:06:31.554Z,18.85
2017-08-31T05:07:34.119Z,14.73
2017-08-31T05:08:36.686Z,20.23
2017-08-31T05:09:39.252Z,28.92
2017-08-31T05:10:41.792Z,18.00
2017-08-31T05:11:44.384Z,23.75
2017-08-31T05:12:46.953Z,17.70
2017-08-31T05:13:49.505Z,19.77
2017-08-31T05:14:52.048Z,22.55
2017-08-31T05:15:54.587Z,21.92
2017-08-31T05:16:57.165Z,21.05
2017-08-31T05:17:59.717Z,15.57
2017-08-31T05:19:02.275Z,21.58
2017-08-31T05:20:04.826Z,26.70
2017-08-31T05:21:07.429Z,20.45
2017-08-31T05:22:09.985Z,21.87
2017-08-31T05:23:12.551Z,21.73
2017-08-31T05:24:15.111Z,16.55
2017-08-31T05:25:17.638Z,23.48
2017-08-31T05:26:20.243Z,22.60
2017-08-31T05:27:22.803Z,17.58
2017-08-31T05:28:25.355Z,20.45
2017-08-31T05:29:27.923Z,22.40
2017-08-31T05:30:30.494Z,20.90
2017-08-31T05:31:33.099Z,18.35
2017-08-31T05:32:35.637Z,23.73
2017-08-31T05:33:38.188Z,19.30
2017-08-31T05:34:40.763Z,24.37
2017-08-31T05:35:43.350Z,22.90
2017-08-31T05:36:45.971Z,20.50
2017-08-31T05:37:48.535Z,26.35
2017-08-31T05:38:51.082Z,23.50
2017-08-31T05:39:53.639Z,29.05
2017-08-31T05:40:56.463Z,29.95
2017-08-31T05:41:59.085Z,22.40
2017-08-31T05:43:01.641Z,29.30
2017-08-31T05:44:04.173Z,31.42
2017-08-31T05:45:06.736Z,26.48
2017-08-31T05:46:09.314Z,31.50
2017-08-31T05:47:12.728Z,27.00
2017-08-31T05:48:15.265Z,29.85
2017-08-31T05:49:17.831Z,21.58
2017-08-31T05:50:21.140Z,18.00
2017-08-31T05:51:23.703Z,26.45
2017-08-31T05:52:26.330Z,25.58
2017-08-31T05:53:28.907Z,23.65
2017-08-31T05:54:31.805Z,29.15
2017-08-31T05:55:34.363Z,34.20
2017-08-31T05:56:36.952Z,35.15
2017-08-31T05:57:40.364Z,23.08
2017-08-31T05:58:42.957Z,31.15
2017-08-31T05:59:45.490Z,33.60
2017-08-31T06:00:48.083Z,25.83
2017-08-31T06:01:50.659Z,26.60
2017-08-31T06:02:53.259Z,22.05
2017-08-31T06:03:55.790Z,23.55
2017-08-31T06:04:58.365Z,23.45
2017-08-31T06:06:01.249Z,26.27
2017-08-31T06:07:03.818Z,33.38
2017-08-31T06:08:06.438Z,22.62
2017-08-31T06:09:09.014Z,24.25
2017-08-31T06:10:11.571Z,31.83
2017-08-31T06:11:14.134Z,30.12
2017-08-31T06:12:16.718Z,25.58
2017-08-31T06:13:19.316Z,25.88
2017-08-31T06:14:21.859Z,21.67
2017-08-31T06:15:24.443Z,28.12
2017-08-31T06:16:27.013Z,28.50
2017-08-31T06:17:29.598Z,18.58
2017-08-31T06:18:32.212Z,29.92
2017-08-31T06:19:34.788Z,24.50
2017-08-31T06:20:37.346Z,23.87
2017-08-31T06:21:39.903Z,20.30
2017-08-31T06:22:42.465Z,25.27
2017-08-31T06:23:45.085Z,18.83
2017-08-31T06:24:47.699Z,22.08
2017-08-31T06:25:51.038Z,26.67
2017-08-31T06:26:53.661Z,22.62
2017-08-31T06:27:56.210Z,17.67
2017-08-31T06:28:59.589Z,22.15
2017-08-31T06:30:02.250Z,18.87
2017-08-31T06:31:04.819Z,21.80
2017-08-31T06:32:07.400Z,23.12
2017-08-31T06:33:09.989Z,19.45
2017-08-31T06:34:12.612Z,24.05
2017-08-31T06:35:15.850Z,13.15
2017-08-31T06:36:18.404Z,23.30
2017-08-31T06:37:20.971Z,19.73
2017-08-31T06:38:24.303Z,21.17
2017-08-31T06:39:26.929Z,16.60
2017-08-31T06:40:29.570Z,19.15
2017-08-31T06:41:32.125Z,18.10
2017-08-31T06:42:34.683Z,18.58
2017-08-31T06:43:37.256Z,23.95
2017-08-31T06:44:39.880Z,24.98
2017-08-31T06:45:42.425Z,13.73
2017-08-31T06:46:44.978Z,15.35
2017-08-31T06:47:47.534Z,14.38
2017-08-31T06:48:50.093Z,18.10
2017-08-31T06:49:52.751Z,17.27
2017-08-31T06:50:55.310Z,19.00
2017-08-31T06:51:57.869Z,13.82
2017-08-31T06:53:00.462Z,18.02
2017-08-31T06:54:03.028Z,17.10
2017-08-31T06:55:05.691Z,18.77
2017-08-31T06:56:08.266Z,16.17
2017-08-31T06:57:11.738Z,14.80
2017-08-31T06:58:14.306Z,15.90
2017-08-31T06:59:16.969Z,14.05
2017-08-31T07:00:19.624Z,16.60
2017-08-31T07:01:22.258Z,12.30
2017-08-31T07:02:24.827Z,18.17
2017-08-31T07:03:27.391Z,14.43
2017-08-31T07:04:29.957Z,16.67
2017-08-31T07:05:32.547Z,19.80
2017-08-31T07:06:35.181Z,15.93
2017-08-31T07:07:37.815Z,16.10
2017-08-31T07:08:41.142Z,13.60
2017-08-31T07:09:43.677Z,17.00
2017-08-31T07:10:46.299Z,17.73
2017-08-31T07:11:48.851Z,13.40
2017-08-31T07:12:51.402Z,18.43
2017-08-31T07:13:53.947Z,12.50
2017-08-31T07:14:56.514Z,14.93
2017-08-31T07:15:59.142Z,14.40
2017-08-31T07:17:01.698Z,12.27
2017-08-31T07:18:04.320Z,15.40
2017-08-31T07:19:06.898Z,14.90
2017-08-31T07:20:09.455Z,11.20
2017-08-31T07:21:12.391Z,11.80
2017-08-31T07:22:14.957Z,13.40
2017-08-31T07:23:17.519Z,13.87
2017-08-31T07:24:20.097Z,17.33
2017-08-31T07:25:22.658Z,15.03
2017-08-31T07:26:25.298Z,15.93
2017-08-31T07:27:27.865Z,16.90
2017-08-31T07:28:30.435Z,14.43
2017-08-31T07:29:33.014Z,16.40
2017-08-31T07:30:35.574Z,17.50
2017-08-31T07:31:38.237Z,15.67
2017-08-31T07:32:40.936Z,15.13
2017-08-31T07:33:43.529Z,10.30
2017-08-31T07:34:46.136Z,12.80
2017-08-31T07:35:48.708Z,16.10
2017-08-31T07:36:51.335Z,12.17
2017-08-31T07:37:54.559Z,15.30
2017-08-31T07:38:57.147Z,11.20
2017-08-31T07:39:59.742Z,12.93
2017-08-31T07:41:02.344Z,15.63
2017-08-31T07:42:04.943Z,11.30
2017-08-31T07:43:07.579Z,12.70
2017-08-31T07:44:10.216Z,12.13
2017-08-31T07:45:13.548Z,11.67
2017-08-31T07:46:16.095Z,12.87
2017-08-31T07:47:18.700Z,11.90
2017-08-31T07:48:21.242Z,14.30
2017-08-31T07:49:23.857Z,16.83
2017-08-31T07:50:26.398Z,11.03
2017-08-31T07:51:28.944Z,11.97
2017-08-31T07:52:32.218Z,8.87
2017-08-31T07:53:34.773Z,12.97
2017-08-31T07:54:37.397Z,10.40
2017-08-31T07:55:39.950Z,13.97
2017-08-31T07:56:42.516Z,11.00
2017-08-31T07:57:45.223Z,12.93
2017-08-31T07:58:47.763Z,8.90
2017-08-31T07:59:50.334Z,16.23
2017-08-31T08:00:52.897Z,13.03
2017-08-31T08:01:55.463Z,12.60
2017-08-31T08:02:58.056Z,14.07
2017-08-31T08:04:00.596Z,10.20
2017-08-31T08:05:03.184Z,11.57
2017-08-31T08:06:05.738Z,7.60
2017-08-31T08:07:08.295Z,15.37
2017-08-31T08:08:10.834Z,9.90
2017-08-31T08:09:13.398Z,13.20
2017-08-31T08:10:15.982Z,10.10
2017-08-31T08:11:18.759Z,13.87
2017-08-31T08:12:21.316Z,16.90
2017-08-31T08:13:23.995Z,11.30
2017-08-31T08:14:26.552Z,17.83
2017-08-31T08:15:29.623Z,13.63
2017-08-31T08:16:32.207Z,12.90
2017-08-31T08:17:34.756Z,12.93
2017-08-31T08:18:37.298Z,12.37
2017-08-31T08:19:40.092Z,19.47
2017-08-31T08:20:42.714Z,11.40
2017-08-31T08:21:45.282Z,9.33
2017-08-31T08:22:47.871Z,11.90
2017-08-31T08:23:50.433Z,13.63
2017-08-31T08:24:53.411Z,13.50
2017-08-31T08:25:56.012Z,10.07
2017-08-31T08:26:59.186Z,16.47
2017-08-31T08:28:02.038Z,13.60
2017-08-31T08:29:04.583Z,12.00
2017-08-31T08:30:07.133Z,17.60
2017-08-31T08:31:09.720Z,16.33
2017-08-31T08:32:12.634Z,13.00
2017-08-31T08:33:15.977Z,18.73
2017-08-31T08:34:18.626Z,18.13
2017-08-31T08:35:21.972Z,14.10
2017-08-31T08:36:25.064Z,13.70
2017-08-31T08:37:27.634Z,10.77
2017-08-31T08:38:30.189Z,8.90
2017-08-31T08:39:32.788Z,14.13
2017-08-31T08:40:35.353Z,16.43
2017-08-31T08:41:37.965Z,12.27
2017-08-31T08:42:40.516Z,13.50
2017-08-31T08:43:43.087Z,11.20
2017-08-31T08:44:45.655Z,18.13
2017-08-31T08:45:48.216Z,10.73
2017-08-31T08:46:51.519Z,12.67
2017-08-31T08:47:54.064Z,13.40
2017-08-31T08:48:56.626Z,14.20
2017-08-31T08:49:59.199Z,10.37
2017-08-31T08:51:01.738Z,13.00
2017-08-31T08:52:04.367Z,12.90
2017-08-31T08:53:06.931Z,13.03
2017-08-31T08:54:09.490Z,12.10
2017-08-31T08:55:12.041Z,19.47
2017-08-31T08:56:14.655Z,19.20
2017-08-31T08:57:17.338Z,10.73
2017-08-31T08:58:19.979Z,21.70
2017-08-31T08:59:22.618Z,20.90
2017-08-31T09:00:25.169Z,16.00
2017-08-31T09:01:27.711Z,16.00
2017-08-31T09:02:30.296Z,18.17
2017-08-31T09:03:32.828Z,17.47
2017-08-31T09:04:35.649Z,13.17
2017-08-31T09:05:38.549Z,20.73
2017-08-31T09:06:41.132Z,20.47
2017-08-31T09:07:44.542Z,17.17
2017-08-31T09:08:47.200Z,10.70
2017-08-31T09:09:50.787Z,10.40
2017-08-31T09:10:53.370Z,13.80
2017-08-31T09:11:56.557Z,15.37
2017-08-31T09:12:59.344Z,17.60
2017-08-31T09:14:01.906Z,16.97
2017-08-31T09:15:04.469Z,17.20
2017-08-31T09:16:07.117Z,16.60
2017-08-31T09:17:09.704Z,18.40
2017-08-31T09:18:12.296Z,12.63
2017-08-31T09:19:14.833Z,17.50
2017-08-31T09:20:17.396Z,19.30
2017-08-31T09:21:19.968Z,17.73
2017-08-31T09:22:22.528Z,13.43
2017-08-31T09:23:25.116Z,19.40
2017-08-31T09:24:27.732Z,18.60
2017-08-31T09:25:30.707Z,19.67
2017-08-31T09:26:33.271Z,18.00
2017-08-31T09:27:35.826Z,14.93
2017-08-31T09:28:38.477Z,17.10
2017-08-31T09:29:41.043Z,14.17
2017-08-31T09:30:43.593Z,18.93
2017-08-31T09:31:46.148Z,13.70
2017-08-31T09:32:48.691Z,16.57
2017-08-31T09:33:51.512Z,18.90
2017-08-31T09:34:54.049Z,14.33
2017-08-31T09:35:56.619Z,15.63
2017-08-31T09:36:59.257Z,17.27
2017-08-31T09:38:01.814Z,16.63
2017-08-31T09:39:04.419Z,18.40
2017-08-31T09:40:06.957Z,13.73
2017-08-31T09:41:09.994Z,18.07
2017-08-31T09:42:12.533Z,18.43
2017-08-31T09:43:15.096Z,19.30
2017-08-31T09:44:17.683Z,22.03
2017-08-31T09:45:20.231Z,16.03
2017-08-31T09:46:22.786Z,20.37
2017-08-31T09:47:25.338Z,20.47
2017-08-31T09:48:27.890Z,17.23
2017-08-31T09:49:30.479Z,26.87
2017-08-31T09:50:33.063Z,16.40
2017-08-31T09:51:35.628Z,16.27
2017-08-31T09:52:38.177Z,18.40
2017-08-31T09:53:40.722Z,17.10
2017-08-31T09:54:43.313Z,13.57
2017-08-31T09:55:45.846Z,11.20
2017-08-31T09:56:48.395Z,13.07
2017-08-31T09:57:50.956Z,21.40
2017-08-31T09:58:53.512Z,15.73
2017-08-31T09:59:56.132Z,14.50
2017-08-31T10:00:58.699Z,19.37
2017-08-31T10:02:01.248Z,14.20
2017-08-31T10:03:03.838Z,14.93
2017-08-31T10:04:06.463Z,11.77
2017-08-31T10:05:09.068Z,23.00
2017-08-31T10:06:11.619Z,14.37
2017-08-31T10:07:15.012Z,14.77
2017-08-31T10:08:18.401Z,12.47
2017-08-31T10:09:21.892Z,12.73
2017-08-31T10:10:24.535Z,11.80
2017-08-31T10:11:27.230Z,13.30
2017-08-31T10:12:29.808Z,21.27
2017-08-31T10:13:32.395Z,9.50
2017-08-31T10:14:34.969Z,16.77
2017-08-31T10:15:37.855Z,12.97
2017-08-31T10:16:40.480Z,18.20
2017-08-31T10:17:43.038Z,19.43
2017-08-31T10:18:45.593Z,12.10
2017-08-31T10:19:48.170Z,18.03
2017-08-31T10:20:50.763Z,14.17
2017-08-31T10:21:53.412Z,10.30
2017-08-31T10:22:55.980Z,13.17
2017-08-31T10:23:58.576Z,13.77
2017-08-31T10:25:01.894Z,13.30
2017-08-31T10:26:04.514Z,11.60
2017-08-31T10:27:07.083Z,15.10
2017-08-31T10:28:09.630Z,11.73
2017-08-31T10:29:12.195Z,10.30
2017-08-31T10:30:14.730Z,13.03
2017-08-31T10:31:17.332Z,18.30
2017-08-31T10:32:19.902Z,15.00
2017-08-31T10:33:22.461Z,15.70
2017-08-31T10:34:25.032Z,11.17
2017-08-31T10:35:28.073Z,14.07
2017-08-31T10:36:30.680Z,12.50
2017-08-31T10:37:33.244Z,12.70
2017-08-31T10:38:35.853Z,8.70
2017-08-31T10:39:38.408Z,20.63
2017-08-31T10:40:40.948Z,17.40
2017-08-31T10:41:43.552Z,12.43
2017-08-31T10:42:46.114Z,12.83
2017-08-31T10:43:48.660Z,14.00
2017-08-31T10:44:51.218Z,21.47
2017-08-31T10:45:53.762Z,18.00
2017-08-31T10:46:56.384Z,15.63
2017-08-31T10:47:58.966Z,12.00
2017-08-31T10:49:01.520Z,11.53
2017-08-31T10:50:04.079Z,11.33
2017-08-31T10:51:06.626Z,13.90
2017-08-31T10:52:09.278Z,14.60
2017-08-31T10:53:11.855Z,11.10
2017-08-31T10:54:14.397Z,10.67
2017-08-31T10:55:16.975Z,14.70
2017-08-31T10:56:19.515Z,11.27
2017-08-31T10:57:22.155Z,13.50
2017-08-31T10:58:24.712Z,13.40
2017-08-31T10:59:27.245Z,16.77
2017-08-31T11:00:29.798Z,7.50
2017-08-31T11:01:32.336Z,13.17
2017-08-31T11:02:34.948Z,18.03
2017-08-31T11:03:37.514Z,14.83
2017-08-31T11:04:40.073Z,8.73
2017-08-31T11:05:42.649Z,9.73
2017-08-31T11:06:45.204Z,15.83
2017-08-31T11:07:48.558Z,13.00
2017-08-31T11:08:51.266Z,10.30
2017-08-31T11:09:53.810Z,16.73
2017-08-31T11:10:56.361Z,10.50
2017-08-31T11:11:58.906Z,15.30
2017-08-31T11:13:01.512Z,14.80
2017-08-31T11:14:04.058Z,12.17
2017-08-31T11:15:06.605Z,14.83
2017-08-31T11:16:09.169Z,14.57
2017-08-31T11:17:11.724Z,11.60
2017-08-31T11:18:14.360Z,15.93
2017-08-31T11:19:16.898Z,13.70
2017-08-31T11:20:19.455Z,11.47
2017-08-31T11:21:22.058Z,10.87
2017-08-31T11:22:24.616Z,14.60
2017-08-31T11:23:27.234Z,17.00
2017-08-31T11:24:29.772Z,15.30
2017-08-31T11:25:32.306Z,14.10
2017-08-31T11:26:34.954Z,12.37
2017-08-31T11:27:37.576Z,16.93
2017-08-31T11:28:40.181Z,9.40
2017-08-31T11:29:42.771Z,9.13
2017-08-31T11:30:45.307Z,15.53
2017-08-31T11:31:47.864Z,13.67
2017-08-31T11:32:50.404Z,9.03
2017-08-31T11:33:53.033Z,12.10
2017-08-31T11:34:55.542Z,9.40
2017-08-31T11:35:58.137Z,5.93
2017-08-31T11:37:00.802Z,16.03
2017-08-31T11:38:03.300Z,17.57
2017-08-31T11:39:05.978Z,9.60
2017-08-31T11:40:08.694Z,12.57
2017-08-31T11:41:11.247Z,11.73
2017-08-31T11:42:13.836Z,12.60
2017-08-31T11:43:16.477Z,10.80
2017-08-31T11:44:19.095Z,11.90
2017-08-31T11:45:21.669Z,9.10
2017-08-31T11:46:24.224Z,13.13
2017-08-31T11:47:26.790Z,15.00
2017-08-31T11:48:29.411Z,8.00
2017-08-31T11:49:32.042Z,9.30
2017-08-31T11:50:34.664Z,17.93
2017-08-31T11:51:37.740Z,13.00
2017-08-31T11:52:40.323Z,12.27
2017-08-31T11:53:43.675Z,15.57
2017-08-31T11:54:46.277Z,10.57
2017-08-31T11:55:48.823Z,6.73
2017-08-31T11:56:51.381Z,9.73
2017-08-31T11:57:53.939Z,8.00
2017-08-31T11:58:56.508Z,8.30
2017-08-31T11:59:59.874Z,10.33
2017-08-31T12:01:02.454Z,10.50
2017-08-31T12:02:05.000Z,17.63
2017-08-31T12:03:07.540Z,10.10
2017-08-31T12:04:10.096Z,11.27
2017-08-31T12:05:12.747Z,9.20
2017-08-31T12:06:15.349Z,9.93
2017-08-31T12:07:17.911Z,13.40
2017-08-31T12:08:20.468Z,15.40
2017-08-31T12:09:23.013Z,11.40
2017-08-31T12:10:25.777Z,13.00
2017-08-31T12:11:28.346Z,8.40
2017-08-31T12:12:30.911Z,12.43
2017-08-31T12:13:33.471Z,20.33
2017-08-31T12:14:36.024Z,6.93
2017-08-31T12:15:38.637Z,15.20
2017-08-31T12:16:41.193Z,13.03
2017-08-31T12:17:44.520Z,9.57
2017-08-31T12:18:47.083Z,12.40
2017-08-31T12:19:49.634Z,16.67
2017-08-31T12:20:52.408Z,14.23
2017-08-31T12:21:54.933Z,9.63
2017-08-31T12:22:57.471Z,8.23
2017-08-31T12:24:00.002Z,9.03
2017-08-31T12:25:02.529Z,14.10
2017-08-31T12:26:05.119Z,8.20
2017-08-31T12:27:07.655Z,17.43
2017-08-31T12:28:10.269Z,11.50
2017-08-31T12:29:12.856Z,9.00
2017-08-31T12:30:15.411Z,6.60
2017-08-31T12:31:17.992Z,13.43
2017-08-31T12:32:20.542Z,6.60
2017-08-31T12:33:23.083Z,6.70
2017-08-31T12:34:25.621Z,15.93
2017-08-31T12:35:28.166Z,9.73
2017-08-31T12:36:30.767Z,8.17
2017-08-31T12:37:33.315Z,5.77
2017-08-31T12:38:35.867Z,12.03
2017-08-31T12:39:38.419Z,6.57
2017-08-31T12:40:40.945Z,14.50
2017-08-31T12:41:43.639Z,13.23
2017-08-31T12:42:46.178Z,11.23
2017-08-31T12:43:48.745Z,4.70
2017-08-31T12:44:51.266Z,7.70
2017-08-31T12:45:53.819Z,12.23
2017-08-31T12:46:56.473Z,12.13
2017-08-31T12:47:59.039Z,7.63
2017-08-31T12:49:01.576Z,10.87
2017-08-31T12:50:04.117Z,6.03
2017-08-31T12:51:06.771Z,7.63
2017-08-31T12:52:09.372Z,12.60
2017-08-31T12:53:11.920Z,11.23
2017-08-31T12:54:14.455Z,16.63
2017-08-31T12:55:16.993Z,4.63
2017-08-31T12:56:20.320Z,6.27
2017-08-31T12:57:22.911Z,5.93
2017-08-31T12:58:25.499Z,10.07
2017-08-31T12:59:28.049Z,6.20
2017-08-31T13:00:30.662Z,6.10
2017-08-31T13:01:33.223Z,8.10
2017-08-31T13:02:36.000Z,14.90
2017-08-31T13:03:38.562Z,7.60
2017-08-31T13:04:41.113Z,5.70
2017-08-31T13:05:43.658Z,7.20
2017-08-31T13:06:46.223Z,5.17
2017-08-31T13:07:48.918Z,7.20
2017-08-31T13:08:51.468Z,13.17
2017-08-31T13:09:54.081Z,6.57
2017-08-31T13:10:57.337Z,7.47
2017-08-31T13:11:59.942Z,10.63
2017-08-31T13:13:02.695Z,5.40
2017-08-31T13:14:06.020Z,5.70
2017-08-31T13:15:08.582Z,6.77
2017-08-31T13:16:11.194Z,4.50
2017-08-31T13:17:13.816Z,8.47
2017-08-31T13:18:16.399Z,11.53
2017-08-31T13:19:18.960Z,8.87
2017-08-31T13:20:21.516Z,11.10
2017-08-31T13:21:24.104Z,21.17
2017-08-31T13:22:26.648Z,31.47
2017-08-31T13:23:29.261Z,17.83
2017-08-31T13:24:31.815Z,14.90
2017-08-31T13:25:34.384Z,16.80
2017-08-31T13:26:36.946Z,26.73
2017-08-31T13:27:39.499Z,12.68
2017-08-31T13:28:42.194Z,16.15
2017-08-31T13:29:44.751Z,11.07
2017-08-31T13:30:47.301Z,19.80